Pula, Chorvatsko

03:33 CET 30. Leden 2015 (GMT +0100)
Astronomical observatory Pula | Change Station
CLOSE
Current Station
Osobní povětrnostní stanice
Location: Pula - Istra, CROATIA
Nadmořská výška: 92 ft
Poblíž povětrnostní stanice

Výška 92 ft 44.87 °N, 13.85 °E | Updated 54 seconds ago

Light Rain
Slabý déšť
49.3 °F
Pocit jako 47 °F
S
5.4
Vítr proměnlivý Vítr od VJV
Gusts 15.9 mil/h

Dnes
Vysoké -- | Nízké -- °F
--% Možnost srážek
Včera
Vysoké -- | Nízké -- °F
Precip. -- inčů
7:26 AM 5:08 PM
Dorůstající měsíc, 79% visible
Tlak 29.03 inčů
Viditelnost 6.2 mílí
Zataženo Nemnoho 2000 ft
Skoro zataženo 3200 ft
Zataženo 3800 ft
Ochlazování větrem 47 °F
Rosný bod 48 °F
Vlhkost 94%
Dešťové srážky 0.04 inčů
Sněhová pokrývka Není k dispozici
UV záření 0 ze 12
Pyl Není k dispozici
Kvalita ovzduší Není k dispozici
Flu Activity Není k dispozici
METAR LDPL 300230Z 16007KT 110V230 9999 -RA FEW020 BKN032 OVC038 09/07 Q0983

More Conditions Fewer Conditions

Tlak 29.03 inčů
Viditelnost 6.2 mílí
Zataženo Nemnoho 2000 ft
Skoro zataženo 3200 ft
Zataženo 3800 ft
Ochlazování větrem 47 °F
Rosný bod 48 °F
Vlhkost 94%
Dešťové srážky 0.04 inčů
Sněhová pokrývka Není k dispozici
UV záření 0 ze 12
Pyl Není k dispozici
Kvalita ovzduší Není k dispozici
Flu Activity Není k dispozici
METAR LDPL 300230Z 16007KT 110V230 9999 -RA FEW020 BKN032 OVC038 09/07 Q0983

More Conditions Fewer Conditions

10-Day Weather Forecast

Almanac

Astronomie

Jan. 30, 2015 Východ Západ
Skutečný čas
Občanský soumrak
Námořní soumrak
Astronomický soumrak
Měsíc
Délka denního světla
Délka dne
Tomorrow will be .
, % of the Moon is Illuminated

Dnešní extrémy

Nejvyšší hodnoty ve státě Nejnižší hodnoty ve státě

Community

WunderPhotos

Upload Photos

1,791,695 snímků staženo!

WunderBlogs® & News

Nearby

Kvalita ovzduší

  Kvalita ovzduší Index kvality ovzduší Polutant
Not available.

Výška sněhu

Station Hloubka Nadmořská výška

Seizmická činnost

Město Distance Mag. Čas & datum
Minimální zobrazený rozsah je 2.5.

Pobřežní teplota vody

Lokalita Teplota

Poblíž povětrnostní stanice